createdAt,value
2019-04-05T00:00:55.070Z,7.73
2019-04-05T00:03:24.429Z,8.03
2019-04-05T00:05:53.531Z,7.17
2019-04-05T00:08:22.571Z,8.60
2019-04-05T00:10:51.689Z,7.87
2019-04-05T00:13:20.768Z,7.57
2019-04-05T00:15:49.857Z,7.77
2019-04-05T00:18:18.924Z,7.60
2019-04-05T00:20:48.023Z,7.93
2019-04-05T00:23:17.107Z,7.47
2019-04-05T00:25:46.249Z,8.50
2019-04-05T00:28:15.307Z,9.00
2019-04-05T00:30:44.365Z,7.73
2019-04-05T00:33:13.483Z,7.53
2019-04-05T00:35:42.587Z,8.33
2019-04-05T00:38:11.668Z,7.97
2019-04-05T00:40:40.675Z,8.10
2019-04-05T00:43:09.745Z,8.17
2019-04-05T00:45:38.835Z,8.80
2019-04-05T00:48:07.910Z,8.30
2019-04-05T00:50:37.008Z,8.47
2019-04-05T00:53:06.168Z,7.67
2019-04-05T00:55:35.282Z,8.50
2019-04-05T00:58:04.439Z,8.27
2019-04-05T01:00:33.568Z,8.93
2019-04-05T01:03:02.658Z,8.20
2019-04-05T01:05:31.829Z,8.10
2019-04-05T01:08:00.935Z,8.27
2019-04-05T01:10:30.041Z,7.80
2019-04-05T01:12:59.494Z,8.00
2019-04-05T01:15:40.183Z,8.13
2019-04-05T01:17:59.774Z,9.73
2019-04-05T01:20:32.695Z,8.10
2019-04-05T01:23:02.161Z,8.57
2019-04-05T01:25:31.606Z,10.07
2019-04-05T01:28:01.179Z,8.30
2019-04-05T01:30:30.283Z,9.17
2019-04-05T01:32:59.361Z,9.87
2019-04-05T01:35:28.498Z,9.77
2019-04-05T01:37:57.962Z,8.27
2019-04-05T01:40:29.430Z,9.70
2019-04-05T01:42:58.846Z,11.07
2019-04-05T01:45:27.972Z,10.90
2019-04-05T01:47:57.158Z,12.33
2019-04-05T01:50:26.348Z,14.97
2019-04-05T01:52:55.476Z,12.10
2019-04-05T01:55:24.570Z,12.23
2019-04-05T01:57:53.690Z,15.60
2019-04-05T02:00:22.783Z,11.50
2019-04-05T02:02:51.876Z,14.53
2019-04-05T02:05:21.059Z,12.27
2019-04-05T02:07:50.102Z,12.63
2019-04-05T02:10:19.305Z,14.23
2019-04-05T02:12:48.399Z,12.73
2019-04-05T02:15:30.148Z,13.93
2019-04-05T02:17:59.602Z,12.43
2019-04-05T02:20:28.823Z,14.87
2019-04-05T02:22:57.991Z,11.77
2019-04-05T02:25:27.385Z,15.03
2019-04-05T02:27:56.459Z,13.57
2019-04-05T02:30:25.674Z,15.37
2019-04-05T02:32:54.767Z,15.23
2019-04-05T02:35:23.956Z,15.00
2019-04-05T02:37:53.137Z,13.40
2019-04-05T02:40:24.496Z,13.97
2019-04-05T02:42:56.025Z,12.33
2019-04-05T02:45:26.221Z,13.10
2019-04-05T02:47:58.972Z,12.13
2019-04-05T02:50:30.887Z,11.87
2019-04-05T02:53:02.968Z,13.63
2019-04-05T02:55:32.790Z,13.13
2019-04-05T02:58:03.524Z,11.63
2019-04-05T03:00:33.999Z,13.27
2019-04-05T03:03:04.719Z,11.27
2019-04-05T03:05:34.092Z,11.73
2019-04-05T03:08:03.792Z,12.57
2019-04-05T03:11:13.153Z,12.93
2019-04-05T03:13:52.300Z,12.77
2019-04-05T03:16:40.370Z,13.23
2019-04-05T03:19:03.869Z,12.03
2019-04-05T03:21:35.463Z,14.50
2019-04-05T03:24:05.937Z,13.80
2019-04-05T03:26:38.612Z,13.50
2019-04-05T03:29:09.783Z,14.60
2019-04-05T03:31:39.617Z,13.27
2019-04-05T03:34:08.926Z,13.90
2019-04-05T03:36:39.473Z,17.27
2019-04-05T03:39:10.532Z,18.13
2019-04-05T03:41:40.187Z,18.73
2019-04-05T03:44:10.315Z,16.07
2019-04-05T03:46:54.847Z,18.40
2019-04-05T03:49:10.681Z,18.60
2019-04-05T03:51:40.067Z,17.97
2019-04-05T03:54:09.128Z,17.17
2019-04-05T03:56:38.595Z,23.27
2019-04-05T03:59:07.890Z,19.23
2019-04-05T04:01:37.256Z,21.30
2019-04-05T04:04:06.463Z,17.80
2019-04-05T04:06:35.852Z,19.03
2019-04-05T04:09:06.445Z,17.30
2019-04-05T04:11:35.993Z,21.43
2019-04-05T04:14:05.461Z,19.47
2019-04-05T04:16:34.545Z,18.73
2019-04-05T04:19:04.034Z,22.53
2019-04-05T04:21:42.133Z,22.13
2019-04-05T04:24:11.356Z,23.50
2019-04-05T04:26:41.511Z,25.23
2019-04-05T04:29:10.924Z,23.23
2019-04-05T04:31:40.023Z,20.83
2019-04-05T04:34:09.103Z,22.40
2019-04-05T04:36:38.404Z,26.07
2019-04-05T04:39:07.600Z,24.00
2019-04-05T04:41:36.941Z,21.97
2019-04-05T04:44:06.116Z,22.10
2019-04-05T04:46:35.394Z,24.83
2019-04-05T04:49:04.902Z,22.80
2019-04-05T04:51:34.129Z,20.80
2019-04-05T04:54:03.719Z,27.93
2019-04-05T04:56:33.144Z,25.90
2019-04-05T04:59:02.237Z,26.40
2019-04-05T05:01:31.408Z,28.63
2019-04-05T05:04:00.577Z,26.63
2019-04-05T05:06:29.707Z,26.83
2019-04-05T05:08:59.574Z,26.80
2019-04-05T05:11:28.962Z,29.47
2019-04-05T05:13:58.175Z,28.17
2019-04-05T05:16:27.277Z,25.57
2019-04-05T05:18:56.835Z,25.10
2019-04-05T05:21:26.531Z,31.20
2019-04-05T05:23:55.743Z,30.90
2019-04-05T05:26:24.910Z,33.10
2019-04-05T05:28:54.115Z,24.50
2019-04-05T05:31:23.615Z,28.33
2019-04-05T05:33:52.693Z,27.50
2019-04-05T05:36:21.773Z,26.10
2019-04-05T05:38:51.277Z,27.37
2019-04-05T05:41:20.357Z,25.90
2019-04-05T05:43:49.447Z,24.67
2019-04-05T05:46:18.533Z,27.73
2019-04-05T05:48:47.689Z,27.73
2019-04-05T05:51:16.768Z,22.40
2019-04-05T05:53:46.163Z,27.07
2019-04-05T05:56:15.267Z,22.40
2019-04-05T05:58:44.427Z,21.40
2019-04-05T06:01:13.487Z,21.90
2019-04-05T06:03:42.598Z,23.53
2019-04-05T06:06:11.689Z,21.53
2019-04-05T06:08:40.800Z,20.53
2019-04-05T06:11:09.879Z,22.07
2019-04-05T06:16:14.192Z,21.43
2019-04-05T06:18:43.289Z,21.27
2019-04-05T06:21:12.378Z,20.90
2019-04-05T06:23:42.186Z,21.73
2019-04-05T06:26:11.254Z,21.80
2019-04-05T06:28:40.443Z,19.73
2019-04-05T06:31:09.628Z,22.30
2019-04-05T06:33:38.724Z,20.13
2019-04-05T06:36:07.802Z,21.13
2019-04-05T06:38:36.892Z,20.83
2019-04-05T06:41:05.988Z,19.47
2019-04-05T06:43:35.100Z,21.67
2019-04-05T06:46:04.207Z,23.80
2019-04-05T06:48:33.434Z,19.70
2019-04-05T06:51:02.483Z,21.63
2019-04-05T06:53:31.582Z,20.43
2019-04-05T06:56:00.708Z,20.40
2019-04-05T06:58:29.855Z,21.83
2019-04-05T07:00:58.973Z,20.07
2019-04-05T07:03:28.175Z,17.93
2019-04-05T07:05:57.255Z,18.60
2019-04-05T07:08:26.393Z,19.13
2019-04-05T07:10:55.478Z,20.40
2019-04-05T07:13:27.308Z,22.00
2019-04-05T07:15:55.407Z,21.13
2019-04-05T07:18:34.025Z,20.53
2019-04-05T07:20:57.862Z,21.10
2019-04-05T07:23:26.403Z,19.43
2019-04-05T07:25:55.487Z,20.13
2019-04-05T07:28:25.263Z,21.47
2019-04-05T07:30:54.427Z,18.83
2019-04-05T07:33:23.543Z,19.53
2019-04-05T07:35:52.665Z,18.30
2019-04-05T07:38:21.795Z,21.77
2019-04-05T07:40:50.886Z,17.27
2019-04-05T07:43:20.009Z,17.80
2019-04-05T07:45:49.153Z,16.73
2019-04-05T07:48:18.236Z,16.97
2019-04-05T07:50:47.340Z,18.30
2019-04-05T07:53:16.452Z,17.73
2019-04-05T07:55:45.565Z,16.67
2019-04-05T07:58:14.629Z,17.43
2019-04-05T08:00:51.103Z,18.27
2019-04-05T08:03:20.974Z,15.70
2019-04-05T08:05:51.351Z,18.43
2019-04-05T08:09:03.399Z,15.07
2019-04-05T08:11:32.459Z,14.93
2019-04-05T08:14:02.386Z,15.23
2019-04-05T08:16:31.460Z,16.40
2019-04-05T08:19:00.557Z,16.17
2019-04-05T08:21:29.642Z,17.57
2019-04-05T08:23:58.756Z,18.73
2019-04-05T08:26:27.828Z,15.17
2019-04-05T08:28:56.971Z,16.47
2019-04-05T08:31:26.056Z,15.13
2019-04-05T08:33:55.130Z,15.80
2019-04-05T08:36:24.216Z,14.33
2019-04-05T08:38:59.875Z,16.37
2019-04-05T08:41:28.940Z,14.07
2019-04-05T08:43:58.064Z,15.93
2019-04-05T08:46:27.166Z,15.90
2019-04-05T08:48:56.248Z,15.00
2019-04-05T08:51:25.384Z,13.37
2019-04-05T08:53:54.482Z,15.80
2019-04-05T08:56:23.603Z,13.73
2019-04-05T08:58:52.693Z,16.00
2019-04-05T09:01:21.797Z,16.90
2019-04-05T09:03:50.868Z,13.60
2019-04-05T09:06:20.040Z,15.73
2019-04-05T09:08:49.124Z,14.47
2019-04-05T09:11:18.230Z,14.57
2019-04-05T09:13:47.342Z,14.77
2019-04-05T09:16:16.446Z,17.13
2019-04-05T09:18:45.523Z,15.80
2019-04-05T09:21:17.677Z,15.00
2019-04-05T09:23:45.500Z,16.60
2019-04-05T09:26:14.662Z,18.90
2019-04-05T09:28:43.910Z,19.03
2019-04-05T09:31:13.030Z,19.03
2019-04-05T09:33:42.031Z,18.80
2019-04-05T09:36:11.170Z,17.37
2019-04-05T09:38:40.247Z,17.63
2019-04-05T09:41:09.446Z,17.60
2019-04-05T09:43:38.519Z,20.23
2019-04-05T09:46:07.701Z,23.07
2019-04-05T09:48:36.817Z,20.73
2019-04-05T09:51:07.273Z,20.40
2019-04-05T09:53:36.609Z,19.70
2019-04-05T09:56:05.743Z,20.93
2019-04-05T09:58:34.836Z,19.60
2019-04-05T10:01:04.133Z,19.03
2019-04-05T10:03:33.223Z,19.53
2019-04-05T10:06:02.436Z,17.63
2019-04-05T10:08:31.534Z,19.50
2019-04-05T10:11:00.855Z,18.40
2019-04-05T10:13:29.951Z,17.70
2019-04-05T10:15:59.085Z,17.40
2019-04-05T10:18:28.196Z,16.67
2019-04-05T10:20:57.333Z,15.53
2019-04-05T10:23:26.493Z,16.20
2019-04-05T10:25:55.603Z,16.97
2019-04-05T10:28:24.647Z,16.63
2019-04-05T10:30:53.861Z,16.57
2019-04-05T10:33:22.949Z,16.83
2019-04-05T10:35:52.060Z,19.97
2019-04-05T10:38:21.077Z,18.03
2019-04-05T10:40:50.186Z,16.23
2019-04-05T10:43:19.271Z,16.23
2019-04-05T10:45:48.675Z,18.40
2019-04-05T10:48:17.813Z,15.93
2019-04-05T10:50:46.938Z,15.80
2019-04-05T10:53:16.091Z,16.10
2019-04-05T10:55:45.225Z,15.60
2019-04-05T10:58:14.286Z,14.60
2019-04-05T11:00:43.494Z,14.27
2019-04-05T11:03:12.628Z,14.40
2019-04-05T11:05:41.769Z,13.37
2019-04-05T11:08:10.874Z,14.80
2019-04-05T11:10:40.051Z,13.97
2019-04-05T11:13:09.167Z,14.23
2019-04-05T11:15:38.299Z,12.77
2019-04-05T11:18:07.302Z,12.50
2019-04-05T11:20:36.430Z,12.23
2019-04-05T11:23:05.570Z,12.60
2019-04-05T11:25:35.238Z,11.63
2019-04-05T11:28:04.368Z,12.30
2019-04-05T11:30:41.986Z,12.37
2019-04-05T11:33:11.266Z,12.97
2019-04-05T11:35:40.470Z,14.27
2019-04-05T11:38:11.222Z,12.40
2019-04-05T11:40:40.746Z,11.87
2019-04-05T11:43:09.830Z,12.67
2019-04-05T11:45:38.920Z,11.73
2019-04-05T11:48:08.450Z,11.27
2019-04-05T11:50:37.504Z,11.30
2019-04-05T11:53:06.715Z,12.17
2019-04-05T11:55:36.148Z,12.43
2019-04-05T11:58:05.306Z,11.37
2019-04-05T12:00:46.355Z,10.43
2019-04-05T12:03:15.512Z,10.40
2019-04-05T12:05:44.635Z,9.90
2019-04-05T12:08:13.784Z,10.33
2019-04-05T12:10:42.862Z,10.60
2019-04-05T12:13:11.976Z,10.43
2019-04-05T12:15:41.079Z,10.27
2019-04-05T12:18:10.234Z,10.33
2019-04-05T12:20:49.080Z,10.40
2019-04-05T12:23:10.159Z,10.87
2019-04-05T12:25:39.243Z,10.47
2019-04-05T12:28:10.586Z,9.90
2019-04-05T12:30:40.101Z,9.03
2019-04-05T12:33:14.372Z,9.13
2019-04-05T12:35:40.075Z,9.77
2019-04-05T12:38:09.219Z,8.93
2019-04-05T12:40:38.458Z,7.90
2019-04-05T12:43:13.071Z,8.13
2019-04-05T12:45:39.925Z,7.70
2019-04-05T12:48:09.025Z,7.07
2019-04-05T12:50:38.129Z,7.23
2019-04-05T12:53:08.433Z,7.17
2019-04-05T12:55:37.533Z,6.97
2019-04-05T12:58:06.641Z,7.07
2019-04-05T13:00:38.742Z,6.17
2019-04-05T13:03:06.737Z,6.30
2019-04-05T13:05:35.891Z,6.33
2019-04-05T13:08:05.007Z,5.87
2019-04-05T13:10:34.147Z,7.60
2019-04-05T13:13:03.341Z,5.93
2019-04-05T13:15:32.505Z,5.37
2019-04-05T13:18:01.600Z,5.73
2019-04-05T13:20:30.851Z,6.27
2019-04-05T13:23:02.512Z,5.73
2019-04-05T13:25:30.963Z,6.10
2019-04-05T13:28:12.536Z,6.47
2019-04-05T13:30:31.007Z,7.20
2019-04-05T13:33:00.117Z,7.30
2019-04-05T13:35:29.198Z,6.53
2019-04-05T13:37:58.500Z,7.77
2019-04-05T13:40:29.570Z,7.30
2019-04-05T13:43:01.403Z,8.50
2019-04-05T13:45:30.162Z,7.43
2019-04-05T13:47:59.286Z,7.33
2019-04-05T13:50:28.388Z,7.37
2019-04-05T13:52:57.493Z,7.90
2019-04-05T13:55:26.632Z,7.63
2019-04-05T13:57:55.791Z,7.47
2019-04-05T14:00:24.972Z,8.07
2019-04-05T14:02:54.121Z,7.20
2019-04-05T14:05:23.357Z,8.23
2019-04-05T14:07:54.672Z,7.70
2019-04-05T14:10:23.382Z,7.77
2019-04-05T14:12:52.512Z,7.77
2019-04-05T14:15:21.664Z,6.97
2019-04-05T14:17:50.748Z,6.83
2019-04-05T14:20:20.168Z,7.50
2019-04-05T14:22:51.546Z,7.87
2019-04-05T14:25:20.157Z,7.43
2019-04-05T14:27:49.239Z,6.87
2019-04-05T14:30:18.372Z,7.83
2019-04-05T14:32:50.579Z,7.63
2019-04-05T14:35:18.310Z,8.30
2019-04-05T14:37:47.328Z,7.60
2019-04-05T14:40:16.798Z,9.70
2019-04-05T14:42:45.921Z,8.07
2019-04-05T14:45:15.405Z,8.27
2019-04-05T14:47:44.505Z,9.77
2019-04-05T14:50:15.888Z,8.60
2019-04-05T14:52:44.690Z,8.10
2019-04-05T14:55:13.915Z,8.87
2019-04-05T14:57:43.003Z,8.80
2019-04-05T15:00:15.181Z,8.67
2019-04-05T15:02:43.960Z,8.60
2019-04-05T15:05:13.359Z,8.60
2019-04-05T15:07:42.437Z,8.40
2019-04-05T15:10:11.623Z,8.83
2019-04-05T15:12:40.751Z,8.40
2019-04-05T15:15:10.054Z,8.00
2019-04-05T15:17:47.667Z,8.90
2019-04-05T15:20:10.283Z,8.60
2019-04-05T15:22:41.511Z,8.57
2019-04-05T15:25:10.613Z,8.10
2019-04-05T15:27:39.704Z,8.13
2019-04-05T15:30:09.796Z,9.17
2019-04-05T15:32:38.865Z,8.90
2019-04-05T15:35:08.578Z,8.40
2019-04-05T15:37:38.018Z,7.90
2019-04-05T15:40:09.077Z,7.13
2019-04-05T15:42:38.159Z,8.27
2019-04-05T15:45:09.278Z,8.87
2019-04-05T15:47:38.388Z,8.03
2019-04-05T15:50:08.146Z,8.33
2019-04-05T15:52:37.249Z,8.37
2019-04-05T15:55:06.931Z,8.03
2019-04-05T15:57:39.207Z,8.27
2019-04-05T16:00:09.180Z,8.00
2019-04-05T16:02:38.243Z,8.53
2019-04-05T16:05:08.087Z,8.17
2019-04-05T16:07:37.211Z,8.13
2019-04-05T16:10:07.042Z,8.37
2019-04-05T16:12:36.124Z,8.63
2019-04-05T16:15:06.473Z,7.53
2019-04-05T16:17:35.548Z,7.53
2019-04-05T16:20:04.896Z,7.97
2019-04-05T16:22:35.883Z,8.47
2019-04-05T16:25:05.503Z,9.80
2019-04-05T16:27:34.684Z,8.77
2019-04-05T16:30:04.012Z,9.87
2019-04-05T16:32:33.120Z,9.37
2019-04-05T16:35:02.224Z,8.70
2019-04-05T16:37:31.464Z,9.43
2019-04-05T16:40:00.604Z,9.23
2019-04-05T16:42:29.794Z,8.77
2019-04-05T16:44:58.871Z,9.77
2019-04-05T16:47:28.004Z,10.00
2019-04-05T16:49:57.076Z,9.07
2019-04-05T16:52:26.224Z,9.43
2019-04-05T16:54:55.324Z,10.27
2019-04-05T16:57:24.439Z,10.10
2019-04-05T16:59:53.575Z,10.00
2019-04-05T17:02:22.711Z,10.77
2019-04-05T17:04:51.983Z,9.37
2019-04-05T17:07:21.010Z,10.23
2019-04-05T17:09:50.100Z,11.00
2019-04-05T17:12:19.209Z,10.03
2019-04-05T17:14:48.316Z,9.67
2019-04-05T17:17:17.449Z,10.80
2019-04-05T17:19:46.529Z,10.83
2019-04-05T17:22:15.647Z,11.13
2019-04-05T17:24:44.749Z,11.50
2019-04-05T17:27:13.861Z,11.70
2019-04-05T17:29:43.228Z,12.80
2019-04-05T17:32:12.390Z,12.43
2019-04-05T17:34:41.402Z,13.63
2019-04-05T17:37:10.336Z,12.00
2019-04-05T17:39:39.426Z,11.83
2019-04-05T17:42:08.565Z,13.17
2019-04-05T17:44:37.643Z,11.83
2019-04-05T17:47:06.785Z,11.77
2019-04-05T17:49:35.882Z,11.90
2019-04-05T17:52:05.009Z,12.10
2019-04-05T17:54:34.086Z,10.70
2019-04-05T17:57:03.434Z,12.30
2019-04-05T17:59:32.832Z,10.23
2019-04-05T18:02:02.025Z,10.37
2019-04-05T18:04:31.140Z,12.17
2019-04-05T18:07:00.327Z,16.73
2019-04-05T18:09:29.453Z,12.27
2019-04-05T18:11:58.594Z,13.87
2019-04-05T18:14:27.891Z,12.13
2019-04-05T18:16:57.083Z,15.30
2019-04-05T18:19:26.381Z,14.90
2019-04-05T18:21:55.581Z,14.87
2019-04-05T18:24:24.730Z,12.83
2019-04-05T18:26:53.863Z,12.03
2019-04-05T18:29:23.030Z,13.70
2019-04-05T18:31:52.173Z,14.43
2019-04-05T18:34:21.365Z,13.83
2019-04-05T18:36:50.522Z,15.13
2019-04-05T18:39:19.641Z,14.63
2019-04-05T18:41:48.819Z,12.97
2019-04-05T18:44:18.035Z,16.10
2019-04-05T18:46:47.453Z,14.03
2019-04-05T18:49:16.617Z,15.40
2019-04-05T18:51:45.675Z,14.53
2019-04-05T18:54:14.849Z,14.03
2019-04-05T18:56:44.002Z,13.70
2019-04-05T18:59:13.095Z,14.53
2019-04-05T19:01:42.225Z,13.80
2019-04-05T19:04:11.309Z,16.37
2019-04-05T19:06:40.412Z,14.20
2019-04-05T19:09:11.827Z,15.73
2019-04-05T19:11:40.738Z,15.47
2019-04-05T19:14:09.839Z,13.77
2019-04-05T19:16:38.988Z,15.83
2019-04-05T19:19:08.095Z,16.63
2019-04-05T19:21:37.223Z,17.93
2019-04-05T19:24:06.353Z,16.77
2019-04-05T19:26:35.480Z,14.37
2019-04-05T19:29:05.274Z,14.97
2019-04-05T19:49:11.203Z,18.30
2019-04-05T19:51:40.322Z,15.97
2019-04-05T19:54:09.483Z,16.50
2019-04-05T19:56:38.601Z,16.27
2019-04-05T19:59:07.699Z,17.83
2019-04-05T20:01:36.784Z,19.30
2019-04-05T20:04:06.087Z,17.53
2019-04-05T20:06:35.168Z,16.17
2019-04-05T20:09:06.257Z,15.37
2019-04-05T20:11:35.371Z,16.77
2019-04-05T20:14:04.610Z,15.93
2019-04-05T20:16:33.769Z,16.53
2019-04-05T20:19:02.832Z,18.07
2019-04-05T20:21:31.931Z,16.23
2019-04-05T20:24:09.453Z,16.73
2019-04-05T20:26:32.031Z,17.00
2019-04-05T20:29:01.141Z,16.80
2019-04-05T20:31:30.266Z,19.13
2019-04-05T20:33:59.429Z,18.87
2019-04-05T20:36:28.533Z,16.50
2019-04-05T20:38:57.641Z,17.93
2019-04-05T20:41:28.528Z,18.53
2019-04-05T20:43:57.666Z,16.53
2019-04-05T20:46:26.790Z,16.60
2019-04-05T20:48:56.006Z,17.43
2019-04-05T20:51:25.111Z,15.53
2019-04-05T20:53:54.249Z,17.40
2019-04-05T20:56:23.351Z,18.40
2019-04-05T20:58:52.497Z,18.23
2019-04-05T21:01:21.604Z,18.53
2019-04-05T21:03:50.716Z,19.10
2019-04-05T21:06:19.806Z,17.93
2019-04-05T21:08:48.923Z,18.73
2019-04-05T21:11:18.027Z,18.13
2019-04-05T21:13:47.201Z,19.43
2019-04-05T21:16:16.279Z,18.73
2019-04-05T21:18:45.338Z,17.13
2019-04-05T21:21:14.457Z,18.27
2019-04-05T21:23:43.553Z,20.87
2019-04-05T21:26:12.658Z,20.50
2019-04-05T21:28:41.767Z,19.20
2019-04-05T21:31:10.932Z,18.93
2019-04-05T21:33:40.059Z,18.77
2019-04-05T21:36:09.130Z,18.40
2019-04-05T21:38:38.224Z,17.60
2019-04-05T21:41:07.310Z,17.90
2019-04-05T21:43:36.412Z,16.33
2019-04-05T21:46:05.509Z,19.73
2019-04-05T21:48:34.582Z,18.93
2019-04-05T21:51:03.700Z,17.17
2019-04-05T21:53:32.868Z,17.33
2019-04-05T21:56:01.966Z,17.30
2019-04-05T21:58:31.076Z,18.77
2019-04-05T22:01:03.489Z,19.20
2019-04-05T22:03:32.594Z,19.10
2019-04-05T22:06:01.703Z,19.80
2019-04-05T22:08:30.816Z,19.77
2019-04-05T22:10:59.911Z,20.47
2019-04-05T22:13:29.017Z,18.97
2019-04-05T22:15:58.167Z,19.67
2019-04-05T22:18:27.266Z,20.03
2019-04-05T22:20:56.402Z,21.07
2019-04-05T22:23:25.541Z,21.43
2019-04-05T22:25:54.648Z,20.93
2019-04-05T22:28:23.755Z,19.27
2019-04-05T22:30:52.916Z,20.00
2019-04-05T22:33:22.031Z,17.20
2019-04-05T22:35:51.081Z,18.80
2019-04-05T22:38:20.159Z,19.73
2019-04-05T22:40:49.291Z,18.87
2019-04-05T22:43:18.473Z,20.23
2019-04-05T22:45:47.600Z,20.87
2019-04-05T22:48:16.678Z,20.43
2019-04-05T22:50:45.791Z,18.03
2019-04-05T22:53:14.856Z,20.03
2019-04-05T22:55:44.581Z,19.57
2019-04-05T22:58:13.745Z,20.27
2019-04-05T23:00:43.070Z,20.80
2019-04-05T23:03:12.120Z,19.10
2019-04-05T23:05:41.228Z,20.93
2019-04-05T23:08:10.335Z,19.07
2019-04-05T23:10:39.497Z,20.47
2019-04-05T23:13:08.720Z,20.63
2019-04-05T23:15:37.866Z,19.20
2019-04-05T23:18:07.034Z,20.13
2019-04-05T23:20:37.736Z,20.23
2019-04-05T23:23:06.833Z,20.33
2019-04-05T23:25:35.976Z,19.97
2019-04-05T23:28:05.081Z,18.80
2019-04-05T23:30:34.250Z,19.23
2019-04-05T23:33:03.342Z,21.13
2019-04-05T23:35:33.528Z,18.30
2019-04-05T23:38:02.609Z,19.10
2019-04-05T23:40:31.709Z,19.20
2019-04-05T23:43:00.765Z,17.67
2019-04-05T23:45:29.958Z,17.93
2019-04-05T23:47:59.050Z,17.80
2019-04-05T23:50:28.299Z,18.40
2019-04-05T23:52:57.369Z,20.07
2019-04-05T23:55:33.234Z,20.97
2019-04-05T23:57:59.530Z,18.20
